createdAt,value
2022-11-28T00:04:52.160Z,10.40
2022-11-28T00:09:53.921Z,8.15
2022-11-28T00:14:55.407Z,9.57
2022-11-28T00:19:56.870Z,8.65
2022-11-28T00:24:58.309Z,8.65
2022-11-28T00:29:59.730Z,8.23
2022-11-28T00:35:01.179Z,9.88
2022-11-28T00:40:10.063Z,9.80
2022-11-28T00:45:11.503Z,10.45
2022-11-28T00:50:12.987Z,9.65
2022-11-28T00:55:14.663Z,11.07
2022-11-28T01:00:16.354Z,9.95
2022-11-28T01:05:17.790Z,10.80
2022-11-28T01:10:19.205Z,10.60
2022-11-28T01:15:20.685Z,11.25
2022-11-28T01:20:22.255Z,11.13
2022-11-28T01:25:23.812Z,10.95
2022-11-28T01:30:25.500Z,10.85
2022-11-28T01:35:26.921Z,11.27
2022-11-28T01:40:28.360Z,11.32
2022-11-28T01:45:30.968Z,10.80
2022-11-28T01:50:33.247Z,10.40
2022-11-28T01:55:37.790Z,10.75
2022-11-28T02:00:39.294Z,10.10
2022-11-28T02:05:40.852Z,11.23
2022-11-28T02:10:42.229Z,10.50
2022-11-28T02:16:02.588Z,10.68
2022-11-28T02:21:04.028Z,9.98
2022-11-28T02:26:20.537Z,11.00
2022-11-28T02:31:24.652Z,10.13
2022-11-28T02:36:31.820Z,10.95
2022-11-28T02:41:46.491Z,10.18
2022-11-28T02:46:58.824Z,10.60
2022-11-28T02:52:02.412Z,9.05
2022-11-28T02:57:22.565Z,9.02
2022-11-28T03:02:30.338Z,9.43
2022-11-28T03:12:59.055Z,11.57
2022-11-28T03:18:00.452Z,10.52
2022-11-28T03:23:24.242Z,10.73
2022-11-28T03:28:25.678Z,10.85
2022-11-28T03:33:28.922Z,10.68
2022-11-28T03:38:41.735Z,11.45
2022-11-28T03:43:46.648Z,11.20
2022-11-28T03:48:50.833Z,11.02
2022-11-28T03:54:06.434Z,10.73
2022-11-28T03:59:19.635Z,10.70
2022-11-28T04:04:26.944Z,11.55
2022-11-28T04:09:35.172Z,10.68
2022-11-28T04:14:57.471Z,11.38
2022-11-28T04:20:05.427Z,10.07
2022-11-28T04:25:25.482Z,10.65
2022-11-28T04:30:27.024Z,10.70
2022-11-28T04:35:33.439Z,10.13
2022-11-28T04:40:37.763Z,9.98
2022-11-28T04:45:43.625Z,10.02
2022-11-28T04:50:59.767Z,9.98
2022-11-28T04:56:11.703Z,10.80
2022-11-28T05:01:16.231Z,10.70
2022-11-28T05:06:28.433Z,11.07
2022-11-28T05:11:29.816Z,10.88
2022-11-28T05:16:31.268Z,11.43
2022-11-28T05:21:32.686Z,12.93
2022-11-28T05:26:35.435Z,13.73
2022-11-28T05:31:37.515Z,11.93
2022-11-28T05:36:39.027Z,12.07
2022-11-28T05:41:40.463Z,13.30
2022-11-28T05:46:41.870Z,13.60
2022-11-28T05:51:43.275Z,13.75
2022-11-28T05:56:44.720Z,14.25
2022-11-28T06:01:46.188Z,14.20
2022-11-28T06:06:49.442Z,13.27
2022-11-28T06:11:50.808Z,14.88
2022-11-28T06:16:52.249Z,14.18
2022-11-28T06:21:53.673Z,14.70
2022-11-28T06:26:55.321Z,14.98
2022-11-28T06:31:56.837Z,16.38
2022-11-28T06:36:58.445Z,16.25
2022-11-28T06:41:59.805Z,15.35
2022-11-28T06:47:01.204Z,15.57
2022-11-28T06:52:02.780Z,16.67
2022-11-28T06:57:04.159Z,15.60
2022-11-28T07:02:07.960Z,16.33
2022-11-28T07:07:13.669Z,16.48
2022-11-28T07:12:17.931Z,17.75
2022-11-28T07:17:19.309Z,16.45
2022-11-28T07:22:20.727Z,16.08
2022-11-28T07:27:22.460Z,15.13
2022-11-28T07:32:23.868Z,15.15
2022-11-28T07:37:25.638Z,14.55
2022-11-28T07:42:27.446Z,13.25
2022-11-28T07:47:29.020Z,14.05
2022-11-28T07:52:30.556Z,13.55
2022-11-28T07:57:31.987Z,14.40
2022-11-28T08:02:33.475Z,14.45
2022-11-28T08:07:35.056Z,14.85
2022-11-28T08:12:36.496Z,13.77
2022-11-28T08:17:37.968Z,14.73
2022-11-28T08:22:39.423Z,14.65
2022-11-28T08:27:40.861Z,14.13
2022-11-28T08:32:42.311Z,15.52
2022-11-28T08:37:43.774Z,15.20
2022-11-28T08:42:45.231Z,15.38
2022-11-28T08:47:46.613Z,15.52
2022-11-28T08:52:48.040Z,16.55
2022-11-28T08:58:08.038Z,17.00
2022-11-28T09:03:16.315Z,16.88
2022-11-28T09:08:20.070Z,17.15
2022-11-28T09:13:22.058Z,16.83
2022-11-28T09:18:23.512Z,16.45
2022-11-28T09:23:24.949Z,17.60
2022-11-28T09:28:28.801Z,17.77
2022-11-28T09:33:30.319Z,18.38
2022-11-28T09:38:31.822Z,19.50
2022-11-28T09:43:35.778Z,17.13
2022-11-28T09:48:40.026Z,18.15
2022-11-28T09:54:04.575Z,19.20
2022-11-28T09:59:19.509Z,17.33
2022-11-28T10:04:27.088Z,17.52
2022-11-28T10:09:34.492Z,17.27
2022-11-28T10:14:38.639Z,17.15
2022-11-28T10:19:54.318Z,17.85
2022-11-28T10:24:57.874Z,18.35
2022-11-28T10:35:28.718Z,18.52
2022-11-28T10:40:39.402Z,19.45
2022-11-28T10:46:01.153Z,20.42
2022-11-28T10:51:17.773Z,20.20
2022-11-28T10:56:22.020Z,20.98
2022-11-28T11:01:24.288Z,19.90
2022-11-28T11:06:36.081Z,19.48
2022-11-28T11:11:49.265Z,22.10
2022-11-28T11:16:59.323Z,20.50
2022-11-28T11:22:02.290Z,19.80
2022-11-28T11:27:14.724Z,23.02
2022-11-28T11:32:21.806Z,21.10
2022-11-28T11:37:43.774Z,21.48
2022-11-28T11:42:51.657Z,23.35
2022-11-28T11:47:53.186Z,21.27
2022-11-28T11:53:14.906Z,22.17
2022-11-28T11:58:19.073Z,20.77
2022-11-28T12:03:25.408Z,21.38
2022-11-28T12:08:33.678Z,19.92
2022-11-28T12:13:35.111Z,21.70
2022-11-28T12:18:48.270Z,21.50
2022-11-28T12:23:56.525Z,21.33
2022-11-28T12:29:10.741Z,24.42
2022-11-28T12:34:13.558Z,21.83
2022-11-28T12:39:20.876Z,22.58
2022-11-28T12:44:22.295Z,22.25
2022-11-28T12:49:44.269Z,23.48
2022-11-28T12:54:54.880Z,23.35
2022-11-28T13:00:08.633Z,22.45
2022-11-28T13:05:10.716Z,21.30
2022-11-28T13:10:31.619Z,22.27
2022-11-28T13:15:42.115Z,21.75
2022-11-28T13:20:50.575Z,22.77
2022-11-28T13:25:55.527Z,21.90
2022-11-28T13:31:02.589Z,22.55
2022-11-28T13:36:05.525Z,22.13
2022-11-28T13:41:28.769Z,21.23
2022-11-28T13:46:33.650Z,21.58
2022-11-28T13:51:35.233Z,23.17
2022-11-28T13:56:36.658Z,21.77
2022-11-28T14:01:45.299Z,22.02
2022-11-28T14:06:46.705Z,22.63
2022-11-28T14:11:51.457Z,20.65
2022-11-28T14:17:05.030Z,23.33
2022-11-28T14:22:09.353Z,21.30
2022-11-28T14:27:19.381Z,21.40
2022-11-28T14:32:31.152Z,20.75
2022-11-28T14:37:34.729Z,21.17
2022-11-28T14:42:59.428Z,21.65
2022-11-28T14:48:14.478Z,21.95
2022-11-28T14:53:37.331Z,21.30
2022-11-28T14:58:38.878Z,22.88
2022-11-28T15:03:50.723Z,20.90
2022-11-28T15:09:00.998Z,22.50
2022-11-28T15:14:21.086Z,21.77
2022-11-28T15:19:24.967Z,21.63
2022-11-28T15:24:36.544Z,22.38
2022-11-28T15:29:38.374Z,22.75
2022-11-28T15:34:40.739Z,20.88
2022-11-28T15:39:42.857Z,20.40
2022-11-28T15:44:44.807Z,17.90
2022-11-28T15:49:46.741Z,18.50
2022-11-28T15:54:51.503Z,17.98
2022-11-28T15:59:53.243Z,18.38
2022-11-28T16:05:05.533Z,19.08
2022-11-28T16:10:08.063Z,19.73
2022-11-28T16:15:16.747Z,22.02
2022-11-28T16:20:28.241Z,19.50
2022-11-28T16:25:30.548Z,17.77
2022-11-28T16:30:37.072Z,17.75
2022-11-28T16:35:41.657Z,17.25
2022-11-28T16:40:43.595Z,17.67
2022-11-28T16:45:45.705Z,18.08
2022-11-28T16:51:13.362Z,18.45
2022-11-28T16:56:29.906Z,17.58
2022-11-28T17:01:31.391Z,16.20
2022-11-28T17:06:34.415Z,17.13
2022-11-28T17:11:37.105Z,16.45
2022-11-28T17:16:39.264Z,17.10
2022-11-28T17:21:42.593Z,16.02
2022-11-28T17:26:44.416Z,17.42
2022-11-28T17:31:47.560Z,17.33
2022-11-28T17:36:49.295Z,19.73
2022-11-28T17:41:50.801Z,17.83
2022-11-28T17:46:53.187Z,17.25
2022-11-28T17:51:55.533Z,15.48
2022-11-28T17:56:57.920Z,17.33
2022-11-28T18:01:59.353Z,18.95
2022-11-28T18:07:01.712Z,19.77
2022-11-28T18:12:03.209Z,20.42
2022-11-28T18:17:04.637Z,20.70
2022-11-28T18:22:08.550Z,18.80
2022-11-28T18:27:09.952Z,19.40
2022-11-28T18:32:11.779Z,16.98
2022-11-28T18:37:13.292Z,16.05
2022-11-28T18:42:14.695Z,16.48
2022-11-28T18:47:16.764Z,14.70
2022-11-28T18:52:18.215Z,13.90
2022-11-28T18:57:19.626Z,15.68
2022-11-28T19:02:21.233Z,14.80
2022-11-28T19:07:23.045Z,15.30
2022-11-28T19:12:24.425Z,14.55
2022-11-28T19:17:25.943Z,14.52
2022-11-28T19:22:27.386Z,13.10
2022-11-28T19:27:28.807Z,13.40
2022-11-28T19:32:30.292Z,14.63
2022-11-28T19:37:31.835Z,15.18
2022-11-28T19:42:33.250Z,13.85
2022-11-28T19:47:34.699Z,15.18
2022-11-28T19:52:36.169Z,14.88
2022-11-28T19:57:38.040Z,14.48
2022-11-28T20:02:39.487Z,14.50
2022-11-28T20:07:41.100Z,14.88
2022-11-28T20:12:42.618Z,17.08
2022-11-28T20:17:44.925Z,14.82
2022-11-28T20:22:46.328Z,14.73
2022-11-28T20:27:47.721Z,16.08
2022-11-28T20:32:49.101Z,15.43
2022-11-28T20:37:50.591Z,15.50
2022-11-28T20:42:52.285Z,14.00
2022-11-28T20:47:53.715Z,15.98
2022-11-28T20:52:55.159Z,15.35
2022-11-28T20:57:56.608Z,15.35
2022-11-28T21:02:58.023Z,15.32
2022-11-28T21:07:59.481Z,16.35
2022-11-28T21:13:00.972Z,15.63
2022-11-28T21:18:03.738Z,15.50
2022-11-28T21:23:05.090Z,16.27
2022-11-28T21:28:06.506Z,17.48
2022-11-28T21:33:08.034Z,18.30
2022-11-28T21:38:09.548Z,16.73
2022-11-28T21:43:10.894Z,15.85
2022-11-28T21:48:12.319Z,16.02
2022-11-28T21:53:16.215Z,17.40
2022-11-28T21:58:22.389Z,16.02
2022-11-28T22:03:27.253Z,15.90
2022-11-28T22:08:29.353Z,15.63
2022-11-28T22:13:31.345Z,15.82
2022-11-28T22:18:32.732Z,16.48
2022-11-28T22:23:34.989Z,15.13
2022-11-28T22:28:37.259Z,16.90
2022-11-28T22:33:38.686Z,15.35
2022-11-28T22:38:40.869Z,14.73
2022-11-28T22:43:42.458Z,14.70
2022-11-28T22:48:44.078Z,15.07
2022-11-28T22:53:45.533Z,15.48
2022-11-28T22:58:47.353Z,15.85
2022-11-28T23:03:48.982Z,16.55
2022-11-28T23:08:50.631Z,16.80
2022-11-28T23:13:52.394Z,16.95
2022-11-28T23:18:54.844Z,16.00
2022-11-28T23:23:56.303Z,19.35
2022-11-28T23:29:01.924Z,17.52
2022-11-28T23:34:03.949Z,18.40
2022-11-28T23:39:06.692Z,19.08
2022-11-28T23:44:09.979Z,20.58
2022-11-28T23:49:12.148Z,22.70
2022-11-28T23:54:13.887Z,21.52
2022-11-28T23:59:15.316Z,22.27
